Flight Track Log - Related Links

Times and Time Zones

All times are in EDT time to prevent confusion due to time zone crossing. See the N525BW flight status page for this flight to view local times or setup timezone preferences in your user account.

Time Position Orientation Groundspeed Altitude Reporting Facility
EDT Latitude Longitude Course Direction KTS MPH feet Rate Location/Type
Sun 12:55:15 PM 33.7584 -84.5117 151° Southeast  Level FlightAware Approximate
Sun 12:58:51 PM 33.7167 -84.4833 180° South 199 229 5,300  Level Atlanta TRACON
Sun 12:59:50 PM 33.6500 -84.4833 180° South 231 266 6,000 353 Climbing Atlanta TRACON
Sun 01:00:50 PM 33.5833 -84.4833 180° South 270 311 6,000 700 Level Atlanta TRACON
Sun 01:01:50 PM 33.5000 -84.4833 180° South 261 300 7,400 1,722 Climbing Atlanta TRACON
Sun 01:02:45 PM 33.4333 -84.4833 176° South 250 288 9,300 1,967 Climbing Atlanta TRACON
Sun 01:03:52 PM 33.3614 -84.4767 178° South 247 284 11,400 1,984 Climbing Atlanta Center
Sun 01:04:52 PM 33.2967 -84.4739 181° South 232 267 13,500 2,050 Climbing Atlanta Center
Sun 01:05:52 PM 33.2319 -84.4758 166° South 232 267 15,500 2,000 Climbing Atlanta Center
Sun 01:06:52 PM 33.1714 -84.4583 159° South 232 267 17,500 1,750 Climbing Atlanta Center
Sun 01:07:52 PM 33.1111 -84.4306 158° South 225 259 19,000 1,550 Climbing Atlanta Center
Sun 01:08:52 PM 33.0486 -84.4006 159° South 231 266 20,600 1,600 Climbing Atlanta Center
Sun 01:09:52 PM 32.9839 -84.3706 159° South 242 278 22,200 1,650 Climbing Atlanta Center
Sun 01:10:52 PM 32.9192 -84.3408 158° South 247 284 23,900 1,488 Climbing Atlanta Center
Sun 01:11:53 PM 32.8631 -84.3133 157° South 247 284 25,200 1,350 Climbing Atlanta Center
Sun 01:12:52 PM 32.8006 -84.2811 157° South 247 284 26,600 1,361 Climbing Atlanta Center
Sun 01:13:52 PM 32.7317 -84.2461 157° South 252 290 27,900 1,200 Climbing Atlanta Center
Sun 01:14:52 PM 32.6628 -84.2117 157° South 257 296 29,000 550 Climbing Atlanta Center
Sun 01:15:52 PM 32.5856 -84.1719 160° South 279 321 29,000  Level Atlanta Center
Sun 01:16:53 PM 32.5000 -84.1350 157° South 308 354 29,000  Level Atlanta Center
Sun 01:17:52 PM 32.4103 -84.0906 155° Southeast 332 382 29,000 706 Level Atlanta Center
Sun 01:18:52 PM 32.3228 -84.0414 157° South 345 397 30,400 1,450 Climbing Atlanta Center
Sun 01:19:52 PM 32.2433 -84.0019 157° South 331 381 31,900 634 Climbing Atlanta Center
Sun 01:22:58 PM 31.9872 -83.8747 156° South 314 361 33,000 268 Climbing Jacksonville Center
Sun 01:23:58 PM 31.9000 -83.8297 158° South 339 390 33,000  Level Jacksonville Center
Sun 01:24:58 PM 31.8106 -83.7872 157° South 345 397 33,000  Level Jacksonville Center
Sun 01:25:58 PM 31.7189 -83.7425 157° South 331 381 33,000  Level Jacksonville Center
Sun 01:26:58 PM 31.6275 -83.6978 156° South 344 396 33,000  Level Jacksonville Center
Sun 01:27:58 PM 31.5419 -83.6531 157° South 368 423 33,000  Level Jacksonville Center
Sun 01:28:58 PM 31.4506 -83.6086 158° South 368 423 33,000  Level Jacksonville Center
Sun 01:29:58 PM 31.3525 -83.5617 157° South 368 423 33,000  Level Jacksonville Center
Sun 01:30:58 PM 31.2631 -83.5172 156° South 357 411 33,000  Level Jacksonville Center
Sun 01:31:58 PM 31.1714 -83.4706 158° South 357 411 33,000  Level Jacksonville Center
Sun 01:32:58 PM 31.0817 -83.4286 158° South 357 411 33,000 -350 Level Jacksonville Center
Sun 01:33:58 PM 30.9900 -83.3844 156° South 357 411 32,300 -1,300 Descending Jacksonville Center
Sun 01:34:58 PM 30.8942 -83.3356 159° South 357 411 30,400 -1,950 Descending Jacksonville Center
Sun 01:35:58 PM 30.8025 -83.2942 142° Southeast 362 417 28,400 -2,000 Descending Jacksonville Center
Sun 01:36:58 PM 30.7192 -83.2189 138° Southeast 362 417 26,400 -1,700 Descending Jacksonville Center
Sun 01:37:58 PM 30.6442 -83.1414 137° Southeast 367 422 25,000 -700 Descending Jacksonville Center
Sun 01:38:58 PM 30.5733 -83.0639 139° Southeast 361 415 25,000  Level Jacksonville Center
Sun 01:39:58 PM 30.5025 -82.9914 139° Southeast 350 403 25,000  Level Jacksonville Center
Sun 01:40:58 PM 30.4272 -82.9167 139° Southeast 350 403 25,000  Level Jacksonville Center
Sun 01:41:58 PM 30.3542 -82.8419 139° Southeast 350 403 25,000  Level Jacksonville Center
Sun 01:42:58 PM 30.2789 -82.7650 138° Southeast 355 409 25,000  Level Jacksonville Center
Sun 01:43:58 PM 30.2078 -82.6908 142° Southeast 355 409 25,000  Level Jacksonville Center
Sun 01:44:58 PM 30.1367 -82.6258 139° Southeast 355 409 25,000  Level Jacksonville Center
Sun 01:45:58 PM 30.0636 -82.5517 136° Southeast 355 409 25,000  Level Jacksonville Center
Sun 01:46:58 PM 29.9861 -82.4658 159° South 355 409 25,000  Level Jacksonville Center
Sun 01:47:58 PM 29.8939 -82.4253 157° South 346 398 25,000 -500 Level Jacksonville Center
Sun 01:48:58 PM 29.8019 -82.3803 157° South 351 404 24,000 -950 Descending Jacksonville Center
Sun 01:49:58 PM 29.7247 -82.3425 156° South 351 404 23,100 -1,050 Descending Jacksonville Center
Sun 01:50:58 PM 29.6367 -82.2975 158° South 351 404 21,900 -1,200 Descending Jacksonville Center
Sun 01:51:58 PM 29.5467 -82.2553 157° South 351 404 20,700 -1,250 Descending Jacksonville Center
Sun 01:52:58 PM 29.4608 -82.2128 158° South 351 404 19,400 -1,400 Descending Jacksonville Center
Sun 01:53:58 PM 29.3814 -82.1753 156° South 333 383 17,900 -1,400 Descending Jacksonville Center
Sun 01:54:58 PM 29.3039 -82.1353 157° South 316 364 16,600 -950 Descending Jacksonville Center
Sun 01:55:58 PM 29.2306 -82.1003 158° South 304 350 16,000 -1,150 Descending Jacksonville Center
Sun 01:56:58 PM 29.1533 -82.0650 157° South 299 344 14,300 -1,850 Descending Jacksonville Center
Sun 01:57:58 PM 29.0778 -82.0278 157° South 299 344 12,300 -1,650 Descending Jacksonville Center
Sun 01:58:58 PM 29.0067 -81.9928 158° South 294 338 11,000 -650 Descending Jacksonville Center
Sun 01:59:58 PM 28.9375 -81.9603 148° Southeast 287 330 11,000  Level Jacksonville Center
Sun 02:00:58 PM 28.8725 -81.9133 125° Southeast 281 323 11,000 -218 Level Jacksonville Center
Sun 02:01:48 PM 28.8333 -81.8500 139° Southeast 257 296 10,600 -919 Descending Orlando TRACON
Sun 02:02:49 PM 28.7833 -81.8000 150° Southeast 230 265 9,300 -1,240 Descending Orlando TRACON
Sun 02:03:49 PM 28.7333 -81.7667 150° Southeast 214 246 8,100 -1,300 Descending Orlando TRACON
Sun 02:04:49 PM 28.6833 -81.7333 120° Southeast 215 247 6,700 -1,450 Descending Orlando TRACON
Sun 02:05:49 PM 28.6500 -81.6667 127° Southeast 203 234 5,200 -1,350 Descending Orlando TRACON
Sun 02:06:49 PM 28.6167 -81.6167 127° Southeast 190 219 4,000 -1,190 Descending Orlando TRACON
Sun 02:07:50 PM 28.5833 -81.5667 111° Southeast 197 227 2,800 -992 Descending Orlando TRACON
Sun 02:08:50 PM 28.5667 -81.5167 139° Southeast 189 217 2,000 -400 Descending Orlando TRACON
Sun 02:09:50 PM 28.5333 -81.4833 111° Southeast 173 199 2,000 50 Level Orlando TRACON
Sun 02:10:50 PM 28.5167 -81.4333 90° East 153 176 2,100 -397 Climbing Orlando TRACON
Sun 02:11:51 PM 28.5167 -81.4000 60° Northeast 136 157 1,200 -744 Descending Orlando TRACON
Sun 02:12:51 PM 28.5333 -81.3667 60° Northeast 118 136 600 -600 Descending Orlando TRACON

Login

Don't have an account? Register now (free) for customized features, flight alerts, and more!